sensor_id;sensor_type;location;lat;lon;timestamp;P1;durP1;ratioP1;P2;durP2;ratioP2
37047;SDS011;23227;48.780;9.210;2023-07-13T00:00:36;1.02;;;0.70;;
37047;SDS011;23227;48.780;9.210;2023-07-13T00:09:45;1.42;;;0.80;;
37047;SDS011;23227;48.780;9.210;2023-07-13T00:12:49;1.55;;;1.05;;
37047;SDS011;23227;48.780;9.210;2023-07-13T00:15:56;3.70;;;0.85;;
37047;SDS011;23227;48.780;9.210;2023-07-13T00:18:59;1.10;;;0.55;;
37047;SDS011;23227;48.780;9.210;2023-07-13T00:22:01;2.08;;;0.70;;
37047;SDS011;23227;48.780;9.210;2023-07-13T00:25:04;3.10;;;0.95;;
37047;SDS011;23227;48.780;9.210;2023-07-13T00:28:09;1.80;;;0.68;;
37047;SDS011;23227;48.780;9.210;2023-07-13T00:31:12;2.22;;;0.70;;
37047;SDS011;23227;48.780;9.210;2023-07-13T00:34:16;2.83;;;0.82;;
37047;SDS011;23227;48.780;9.210;2023-07-13T00:40:21;1.60;;;0.70;;
37047;SDS011;23227;48.780;9.210;2023-07-13T00:46:29;1.95;;;1.00;;
37047;SDS011;23227;48.780;9.210;2023-07-13T00:49:33;2.50;;;0.90;;
37047;SDS011;23227;48.780;9.210;2023-07-13T00:52:38;2.35;;;0.90;;
37047;SDS011;23227;48.780;9.210;2023-07-13T00:55:42;1.98;;;0.90;;
37047;SDS011;23227;48.780;9.210;2023-07-13T01:01:49;0.98;;;0.70;;
37047;SDS011;23227;48.780;9.210;2023-07-13T01:04:52;2.28;;;1.10;;
37047;SDS011;23227;48.780;9.210;2023-07-13T01:10:57;2.47;;;0.60;;
37047;SDS011;23227;48.780;9.210;2023-07-13T01:14:01;0.98;;;0.70;;
37047;SDS011;23227;48.780;9.210;2023-07-13T01:17:04;3.28;;;0.65;;
37047;SDS011;23227;48.780;9.210;2023-07-13T01:20:08;1.92;;;0.70;;
37047;SDS011;23227;48.780;9.210;2023-07-13T01:23:12;1.92;;;0.70;;
37047;SDS011;23227;48.780;9.210;2023-07-13T01:26:15;2.17;;;0.55;;
37047;SDS011;23227;48.780;9.210;2023-07-13T01:32:20;1.38;;;0.60;;
37047;SDS011;23227;48.780;9.210;2023-07-13T01:35:26;2.65;;;0.80;;
37047;SDS011;23227;48.780;9.210;2023-07-13T01:38:30;1.70;;;0.70;;
37047;SDS011;23227;48.780;9.210;2023-07-13T01:41:33;0.63;;;0.50;;
37047;SDS011;23227;48.780;9.210;2023-07-13T01:47:38;1.40;;;0.65;;
37047;SDS011;23227;48.780;9.210;2023-07-13T01:53:45;3.13;;;0.52;;
37047;SDS011;23227;48.780;9.210;2023-07-13T01:56:47;2.13;;;0.60;;
37047;SDS011;23227;48.780;9.210;2023-07-13T02:02:52;4.22;;;0.85;;
37047;SDS011;23227;48.780;9.210;2023-07-13T02:05:55;1.63;;;0.88;;
37047;SDS011;23227;48.780;9.210;2023-07-13T02:08:59;2.80;;;0.63;;
37047;SDS011;23227;48.780;9.210;2023-07-13T02:12:02;0.63;;;0.60;;
37047;SDS011;23227;48.780;9.210;2023-07-13T02:15:05;3.17;;;0.88;;
37047;SDS011;23227;48.780;9.210;2023-07-13T02:18:09;1.67;;;0.60;;
37047;SDS011;23227;48.780;9.210;2023-07-13T02:21:11;2.53;;;0.90;;
37047;SDS011;23227;48.780;9.210;2023-07-13T02:27:19;1.95;;;0.75;;
37047;SDS011;23227;48.780;9.210;2023-07-13T02:30:21;0.93;;;0.65;;
37047;SDS011;23227;48.780;9.210;2023-07-13T02:33:26;1.85;;;0.80;;
37047;SDS011;23227;48.780;9.210;2023-07-13T02:39:32;1.10;;;0.57;;
37047;SDS011;23227;48.780;9.210;2023-07-13T02:42:35;1.52;;;0.70;;
37047;SDS011;23227;48.780;9.210;2023-07-13T02:45:43;1.35;;;0.73;;
37047;SDS011;23227;48.780;9.210;2023-07-13T02:48:46;1.38;;;0.65;;
37047;SDS011;23227;48.780;9.210;2023-07-13T02:51:48;4.78;;;0.65;;
37047;SDS011;23227;48.780;9.210;2023-07-13T02:54:52;2.08;;;0.70;;
37047;SDS011;23227;48.780;9.210;2023-07-13T02:57:55;1.55;;;0.63;;
37047;SDS011;23227;48.780;9.210;2023-07-13T03:00:58;0.98;;;0.60;;
37047;SDS011;23227;48.780;9.210;2023-07-13T03:04:01;2.85;;;0.77;;
37047;SDS011;23227;48.780;9.210;2023-07-13T03:07:04;1.75;;;0.75;;
37047;SDS011;23227;48.780;9.210;2023-07-13T03:10:08;2.08;;;0.60;;
37047;SDS011;23227;48.780;9.210;2023-07-13T03:13:11;2.22;;;0.88;;
37047;SDS011;23227;48.780;9.210;2023-07-13T03:16:14;1.88;;;0.90;;
37047;SDS011;23227;48.780;9.210;2023-07-13T03:19:20;2.58;;;0.70;;
37047;SDS011;23227;48.780;9.210;2023-07-13T03:22:23;2.30;;;0.93;;
37047;SDS011;23227;48.780;9.210;2023-07-13T03:28:29;2.92;;;1.15;;
37047;SDS011;23227;48.780;9.210;2023-07-13T03:34:36;2.25;;;0.70;;
37047;SDS011;23227;48.780;9.210;2023-07-13T03:37:38;1.08;;;0.50;;
37047;SDS011;23227;48.780;9.210;2023-07-13T03:40:45;2.47;;;0.90;;
37047;SDS011;23227;48.780;9.210;2023-07-13T03:43:48;1.92;;;0.60;;
37047;SDS011;23227;48.780;9.210;2023-07-13T03:46:51;3.20;;;0.90;;
37047;SDS011;23227;48.780;9.210;2023-07-13T03:49:54;3.65;;;0.95;;
37047;SDS011;23227;48.780;9.210;2023-07-13T03:56:01;4.15;;;0.93;;
37047;SDS011;23227;48.780;9.210;2023-07-13T03:59:04;4.70;;;1.23;;
37047;SDS011;23227;48.780;9.210;2023-07-13T04:05:09;5.00;;;1.25;;
37047;SDS011;23227;48.780;9.210;2023-07-13T04:08:11;3.08;;;0.77;;
37047;SDS011;23227;48.780;9.210;2023-07-13T04:11:16;3.95;;;1.15;;
37047;SDS011;23227;48.780;9.210;2023-07-13T04:14:19;4.88;;;1.25;;
37047;SDS011;23227;48.780;9.210;2023-07-13T04:17:21;1.85;;;0.93;;
37047;SDS011;23227;48.780;9.210;2023-07-13T04:23:27;5.68;;;1.00;;
37047;SDS011;23227;48.780;9.210;2023-07-13T04:26:31;3.75;;;1.40;;
37047;SDS011;23227;48.780;9.210;2023-07-13T04:29:37;14.63;;;2.20;;
37047;SDS011;23227;48.780;9.210;2023-07-13T04:32:39;5.30;;;1.77;;
37047;SDS011;23227;48.780;9.210;2023-07-13T04:35:42;2.65;;;1.10;;
37047;SDS011;23227;48.780;9.210;2023-07-13T04:38:45;4.63;;;1.27;;
37047;SDS011;23227;48.780;9.210;2023-07-13T04:41:49;7.70;;;1.75;;
37047;SDS011;23227;48.780;9.210;2023-07-13T04:44:51;3.05;;;1.10;;
37047;SDS011;23227;48.780;9.210;2023-07-13T04:50:57;3.88;;;0.90;;
37047;SDS011;23227;48.780;9.210;2023-07-13T04:54:00;2.75;;;0.70;;
37047;SDS011;23227;48.780;9.210;2023-07-13T05:00:08;1.52;;;0.80;;
37047;SDS011;23227;48.780;9.210;2023-07-13T05:03:13;2.78;;;1.13;;
37047;SDS011;23227;48.780;9.210;2023-07-13T05:06:15;3.08;;;1.00;;
37047;SDS011;23227;48.780;9.210;2023-07-13T05:09:18;2.92;;;0.90;;
37047;SDS011;23227;48.780;9.210;2023-07-13T05:15:24;6.80;;;1.13;;
37047;SDS011;23227;48.780;9.210;2023-07-13T05:18:28;5.68;;;0.85;;
37047;SDS011;23227;48.780;9.210;2023-07-13T05:21:31;1.90;;;0.90;;
37047;SDS011;23227;48.780;9.210;2023-07-13T05:24:34;3.75;;;1.10;;
37047;SDS011;23227;48.780;9.210;2023-07-13T05:27:38;3.05;;;1.00;;
37047;SDS011;23227;48.780;9.210;2023-07-13T05:30:44;7.10;;;1.33;;
37047;SDS011;23227;48.780;9.210;2023-07-13T05:33:47;1.35;;;0.75;;
37047;SDS011;23227;48.780;9.210;2023-07-13T05:36:50;2.78;;;0.63;;
37047;SDS011;23227;48.780;9.210;2023-07-13T05:39:53;2.38;;;0.80;;
37047;SDS011;23227;48.780;9.210;2023-07-13T05:42:57;8.70;;;0.95;;
37047;SDS011;23227;48.780;9.210;2023-07-13T05:45:59;4.88;;;1.00;;
37047;SDS011;23227;48.780;9.210;2023-07-13T05:49:02;4.28;;;0.70;;
37047;SDS011;23227;48.780;9.210;2023-07-13T05:52:05;5.10;;;0.90;;
37047;SDS011;23227;48.780;9.210;2023-07-13T05:55:08;4.32;;;0.90;;
37047;SDS011;23227;48.780;9.210;2023-07-13T05:58:12;4.30;;;0.98;;
37047;SDS011;23227;48.780;9.210;2023-07-13T06:01:15;2.58;;;0.85;;
37047;SDS011;23227;48.780;9.210;2023-07-13T06:04:19;2.75;;;1.23;;
37047;SDS011;23227;48.780;9.210;2023-07-13T06:10:24;4.55;;;1.00;;
37047;SDS011;23227;48.780;9.210;2023-07-13T06:13:28;4.18;;;1.10;;
37047;SDS011;23227;48.780;9.210;2023-07-13T06:16:30;2.33;;;0.98;;
37047;SDS011;23227;48.780;9.210;2023-07-13T06:22:36;9.10;;;1.33;;
37047;SDS011;23227;48.780;9.210;2023-07-13T06:25:39;2.00;;;0.95;;
37047;SDS011;23227;48.780;9.210;2023-07-13T06:28:43;5.60;;;1.48;;
37047;SDS011;23227;48.780;9.210;2023-07-13T06:31:46;2.53;;;1.40;;
37047;SDS011;23227;48.780;9.210;2023-07-13T06:34:49;3.78;;;1.30;;
37047;SDS011;23227;48.780;9.210;2023-07-13T06:37:53;4.35;;;1.42;;
37047;SDS011;23227;48.780;9.210;2023-07-13T06:40:55;4.63;;;1.13;;
37047;SDS011;23227;48.780;9.210;2023-07-13T06:43:59;2.45;;;1.05;;
37047;SDS011;23227;48.780;9.210;2023-07-13T06:47:02;3.53;;;0.93;;
37047;SDS011;23227;48.780;9.210;2023-07-13T06:50:05;2.35;;;1.35;;
37047;SDS011;23227;48.780;9.210;2023-07-13T06:53:10;3.17;;;0.80;;
37047;SDS011;23227;48.780;9.210;2023-07-13T06:56:13;2.90;;;1.00;;
37047;SDS011;23227;48.780;9.210;2023-07-13T06:59:18;5.13;;;1.00;;
37047;SDS011;23227;48.780;9.210;2023-07-13T07:02:21;7.03;;;1.13;;
37047;SDS011;23227;48.780;9.210;2023-07-13T07:05:23;4.97;;;1.30;;
37047;SDS011;23227;48.780;9.210;2023-07-13T07:08:26;5.43;;;1.23;;
37047;SDS011;23227;48.780;9.210;2023-07-13T07:11:29;5.40;;;1.60;;
37047;SDS011;23227;48.780;9.210;2023-07-13T07:14:32;5.22;;;1.35;;
37047;SDS011;23227;48.780;9.210;2023-07-13T07:17:36;23.33;;;4.88;;
37047;SDS011;23227;48.780;9.210;2023-07-13T07:20:38;10.57;;;2.92;;
37047;SDS011;23227;48.780;9.210;2023-07-13T07:23:41;13.70;;;2.35;;
37047;SDS011;23227;48.780;9.210;2023-07-13T07:26:44;13.55;;;2.88;;
37047;SDS011;23227;48.780;9.210;2023-07-13T07:29:51;22.95;;;3.92;;
37047;SDS011;23227;48.780;9.210;2023-07-13T07:33:13;30.40;;;4.18;;
37047;SDS011;23227;48.780;9.210;2023-07-13T07:36:16;37.22;;;5.03;;
37047;SDS011;23227;48.780;9.210;2023-07-13T07:39:22;34.90;;;5.55;;
37047;SDS011;23227;48.780;9.210;2023-07-13T07:42:24;34.80;;;4.32;;
37047;SDS011;23227;48.780;9.210;2023-07-13T07:48:31;25.10;;;4.90;;
37047;SDS011;23227;48.780;9.210;2023-07-13T07:51:34;42.78;;;6.55;;
37047;SDS011;23227;48.780;9.210;2023-07-13T07:54:37;27.67;;;3.90;;
37047;SDS011;23227;48.780;9.210;2023-07-13T07:57:42;31.27;;;4.22;;
37047;SDS011;23227;48.780;9.210;2023-07-13T08:00:49;33.05;;;4.88;;
37047;SDS011;23227;48.780;9.210;2023-07-13T08:03:54;27.60;;;4.05;;
37047;SDS011;23227;48.780;9.210;2023-07-13T08:07:00;21.15;;;3.25;;
37047;SDS011;23227;48.780;9.210;2023-07-13T08:10:04;18.88;;;2.08;;
37047;SDS011;23227;48.780;9.210;2023-07-13T08:13:07;9.90;;;2.58;;
37047;SDS011;23227;48.780;9.210;2023-07-13T08:16:13;14.40;;;2.25;;
37047;SDS011;23227;48.780;9.210;2023-07-13T08:19:16;10.30;;;2.22;;
37047;SDS011;23227;48.780;9.210;2023-07-13T08:25:21;14.77;;;2.20;;
37047;SDS011;23227;48.780;9.210;2023-07-13T08:31:28;8.27;;;1.50;;
37047;SDS011;23227;48.780;9.210;2023-07-13T08:34:30;10.40;;;1.40;;
37047;SDS011;23227;48.780;9.210;2023-07-13T08:37:33;7.63;;;1.33;;
37047;SDS011;23227;48.780;9.210;2023-07-13T08:40:35;6.22;;;1.60;;
37047;SDS011;23227;48.780;9.210;2023-07-13T08:43:38;5.22;;;1.63;;
37047;SDS011;23227;48.780;9.210;2023-07-13T08:46:42;5.22;;;1.15;;
37047;SDS011;23227;48.780;9.210;2023-07-13T08:49:47;8.50;;;1.50;;
37047;SDS011;23227;48.780;9.210;2023-07-13T08:52:49;5.95;;;1.40;;
37047;SDS011;23227;48.780;9.210;2023-07-13T08:55:58;11.18;;;1.98;;
37047;SDS011;23227;48.780;9.210;2023-07-13T08:59:03;10.15;;;1.70;;
37047;SDS011;23227;48.780;9.210;2023-07-13T09:02:18;6.63;;;1.30;;
37047;SDS011;23227;48.780;9.210;2023-07-13T09:05:26;6.97;;;1.52;;
37047;SDS011;23227;48.780;9.210;2023-07-13T09:08:38;7.93;;;1.63;;
37047;SDS011;23227;48.780;9.210;2023-07-13T09:11:49;14.18;;;1.50;;
37047;SDS011;23227;48.780;9.210;2023-07-13T09:14:56;16.70;;;2.30;;
37047;SDS011;23227;48.780;9.210;2023-07-13T09:18:02;10.40;;;1.92;;
37047;SDS011;23227;48.780;9.210;2023-07-13T09:21:08;10.02;;;1.67;;
37047;SDS011;23227;48.780;9.210;2023-07-13T09:24:27;6.78;;;1.80;;
37047;SDS011;23227;48.780;9.210;2023-07-13T09:27:33;6.35;;;1.20;;
37047;SDS011;23227;48.780;9.210;2023-07-13T09:30:40;3.35;;;1.38;;
37047;SDS011;23227;48.780;9.210;2023-07-13T09:33:49;5.95;;;1.67;;
37047;SDS011;23227;48.780;9.210;2023-07-13T09:36:52;4.30;;;1.50;;
37047;SDS011;23227;48.780;9.210;2023-07-13T09:39:54;7.45;;;1.50;;
37047;SDS011;23227;48.780;9.210;2023-07-13T09:42:58;8.18;;;1.90;;
37047;SDS011;23227;48.780;9.210;2023-07-13T09:46:01;7.38;;;1.38;;
37047;SDS011;23227;48.780;9.210;2023-07-13T09:49:07;12.85;;;2.22;;
37047;SDS011;23227;48.780;9.210;2023-07-13T09:52:11;7.95;;;1.25;;
37047;SDS011;23227;48.780;9.210;2023-07-13T09:55:23;5.60;;;1.90;;
37047;SDS011;23227;48.780;9.210;2023-07-13T09:58:29;4.07;;;1.70;;
37047;SDS011;23227;48.780;9.210;2023-07-13T10:01:34;8.65;;;1.40;;
37047;SDS011;23227;48.780;9.210;2023-07-13T10:04:40;5.75;;;1.20;;
37047;SDS011;23227;48.780;9.210;2023-07-13T10:07:43;7.70;;;2.13;;
37047;SDS011;23227;48.780;9.210;2023-07-13T10:10:46;5.30;;;1.60;;
37047;SDS011;23227;48.780;9.210;2023-07-13T10:13:55;4.22;;;1.55;;
37047;SDS011;23227;48.780;9.210;2023-07-13T10:16:59;5.03;;;1.23;;
37047;SDS011;23227;48.780;9.210;2023-07-13T10:20:05;2.75;;;1.02;;
37047;SDS011;23227;48.780;9.210;2023-07-13T10:23:13;7.80;;;1.33;;
37047;SDS011;23227;48.780;9.210;2023-07-13T10:26:19;4.93;;;1.73;;
37047;SDS011;23227;48.780;9.210;2023-07-13T10:29:25;7.72;;;1.67;;
37047;SDS011;23227;48.780;9.210;2023-07-13T10:32:28;5.47;;;1.45;;
37047;SDS011;23227;48.780;9.210;2023-07-13T10:38:35;8.00;;;1.40;;
37047;SDS011;23227;48.780;9.210;2023-07-13T10:41:38;8.60;;;1.25;;
37047;SDS011;23227;48.780;9.210;2023-07-13T10:44:41;6.70;;;1.73;;
37047;SDS011;23227;48.780;9.210;2023-07-13T10:50:49;4.70;;;1.05;;
37047;SDS011;23227;48.780;9.210;2023-07-13T10:57:21;5.88;;;1.27;;
37047;SDS011;23227;48.780;9.210;2023-07-13T11:03:27;7.22;;;1.23;;
37047;SDS011;23227;48.780;9.210;2023-07-13T11:06:34;4.00;;;1.00;;
37047;SDS011;23227;48.780;9.210;2023-07-13T11:09:40;7.68;;;1.30;;
37047;SDS011;23227;48.780;9.210;2023-07-13T11:12:50;5.38;;;1.52;;
37047;SDS011;23227;48.780;9.210;2023-07-13T11:15:54;7.45;;;1.85;;
37047;SDS011;23227;48.780;9.210;2023-07-13T11:22:19;5.32;;;1.40;;
37047;SDS011;23227;48.780;9.210;2023-07-13T11:25:25;5.53;;;1.85;;
37047;SDS011;23227;48.780;9.210;2023-07-13T11:28:31;6.45;;;1.38;;
37047;SDS011;23227;48.780;9.210;2023-07-13T11:31:35;5.90;;;0.95;;
37047;SDS011;23227;48.780;9.210;2023-07-13T11:37:42;4.55;;;1.23;;
37047;SDS011;23227;48.780;9.210;2023-07-13T11:40:45;5.32;;;1.75;;
37047;SDS011;23227;48.780;9.210;2023-07-13T11:44:04;6.40;;;1.00;;
37047;SDS011;23227;48.780;9.210;2023-07-13T11:47:10;9.52;;;1.25;;
37047;SDS011;23227;48.780;9.210;2023-07-13T11:50:17;5.38;;;1.65;;
37047;SDS011;23227;48.780;9.210;2023-07-13T11:53:22;9.73;;;1.48;;
37047;SDS011;23227;48.780;9.210;2023-07-13T11:56:26;10.48;;;1.52;;
37047;SDS011;23227;48.780;9.210;2023-07-13T12:02:33;8.13;;;1.35;;
37047;SDS011;23227;48.780;9.210;2023-07-13T12:05:37;4.35;;;1.23;;
37047;SDS011;23227;48.780;9.210;2023-07-13T12:11:43;7.65;;;1.60;;
37047;SDS011;23227;48.780;9.210;2023-07-13T12:14:46;3.88;;;0.93;;
37047;SDS011;23227;48.780;9.210;2023-07-13T12:17:48;4.07;;;1.20;;
37047;SDS011;23227;48.780;9.210;2023-07-13T12:20:51;2.53;;;1.10;;
37047;SDS011;23227;48.780;9.210;2023-07-13T12:23:57;4.40;;;1.17;;
37047;SDS011;23227;48.780;9.210;2023-07-13T12:27:03;2.17;;;0.98;;
37047;SDS011;23227;48.780;9.210;2023-07-13T12:30:20;3.25;;;1.20;;
37047;SDS011;23227;48.780;9.210;2023-07-13T12:33:27;5.22;;;0.90;;
37047;SDS011;23227;48.780;9.210;2023-07-13T12:36:34;7.25;;;1.50;;
37047;SDS011;23227;48.780;9.210;2023-07-13T12:39:44;4.90;;;1.15;;
37047;SDS011;23227;48.780;9.210;2023-07-13T12:42:48;3.40;;;1.17;;
37047;SDS011;23227;48.780;9.210;2023-07-13T12:45:55;3.58;;;1.25;;
37047;SDS011;23227;48.780;9.210;2023-07-13T12:48:58;3.83;;;0.80;;
37047;SDS011;23227;48.780;9.210;2023-07-13T12:52:21;5.22;;;1.17;;
37047;SDS011;23227;48.780;9.210;2023-07-13T12:55:26;7.40;;;1.38;;
37047;SDS011;23227;48.780;9.210;2023-07-13T12:58:36;5.40;;;1.80;;
37047;SDS011;23227;48.780;9.210;2023-07-13T13:01:42;9.02;;;1.27;;
37047;SDS011;23227;48.780;9.210;2023-07-13T13:04:44;2.58;;;1.30;;
37047;SDS011;23227;48.780;9.210;2023-07-13T13:07:47;5.25;;;1.25;;
37047;SDS011;23227;48.780;9.210;2023-07-13T13:10:51;7.22;;;1.00;;
37047;SDS011;23227;48.780;9.210;2023-07-13T13:13:54;8.27;;;0.98;;
37047;SDS011;23227;48.780;9.210;2023-07-13T13:16:57;4.05;;;1.30;;
37047;SDS011;23227;48.780;9.210;2023-07-13T13:20:00;4.65;;;1.10;;
37047;SDS011;23227;48.780;9.210;2023-07-13T13:23:04;6.90;;;1.25;;
37047;SDS011;23227;48.780;9.210;2023-07-13T13:26:10;3.72;;;1.10;;
37047;SDS011;23227;48.780;9.210;2023-07-13T13:29:14;6.40;;;1.20;;
37047;SDS011;23227;48.780;9.210;2023-07-13T13:32:17;2.83;;;1.13;;
37047;SDS011;23227;48.780;9.210;2023-07-13T13:35:20;2.70;;;0.70;;
37047;SDS011;23227;48.780;9.210;2023-07-13T13:38:23;3.65;;;1.02;;
37047;SDS011;23227;48.780;9.210;2023-07-13T13:41:29;2.58;;;0.80;;
37047;SDS011;23227;48.780;9.210;2023-07-13T13:44:32;3.92;;;1.13;;
37047;SDS011;23227;48.780;9.210;2023-07-13T13:53:40;6.45;;;1.10;;
37047;SDS011;23227;48.780;9.210;2023-07-13T13:56:45;2.65;;;1.02;;
37047;SDS011;23227;48.780;9.210;2023-07-13T13:59:49;4.78;;;1.13;;
37047;SDS011;23227;48.780;9.210;2023-07-13T14:02:52;4.28;;;1.08;;
37047;SDS011;23227;48.780;9.210;2023-07-13T14:05:58;4.38;;;1.38;;
37047;SDS011;23227;48.780;9.210;2023-07-13T14:09:01;6.95;;;0.90;;
37047;SDS011;23227;48.780;9.210;2023-07-13T14:12:08;2.58;;;0.80;;
37047;SDS011;23227;48.780;9.210;2023-07-13T14:15:13;4.00;;;0.63;;
37047;SDS011;23227;48.780;9.210;2023-07-13T14:18:21;3.90;;;0.80;;
37047;SDS011;23227;48.780;9.210;2023-07-13T14:21:25;9.02;;;0.80;;
37047;SDS011;23227;48.780;9.210;2023-07-13T14:24:29;5.22;;;0.98;;
37047;SDS011;23227;48.780;9.210;2023-07-13T14:30:35;5.93;;;0.90;;
37047;SDS011;23227;48.780;9.210;2023-07-13T14:33:38;4.15;;;1.05;;
37047;SDS011;23227;48.780;9.210;2023-07-13T14:39:51;3.00;;;0.80;;
37047;SDS011;23227;48.780;9.210;2023-07-13T14:42:57;3.20;;;0.80;;
37047;SDS011;23227;48.780;9.210;2023-07-13T14:45:59;4.95;;;1.15;;
37047;SDS011;23227;48.780;9.210;2023-07-13T14:49:02;4.15;;;1.00;;
37047;SDS011;23227;48.780;9.210;2023-07-13T14:52:09;10.80;;;1.48;;
37047;SDS011;23227;48.780;9.210;2023-07-13T14:55:14;6.65;;;1.23;;
37047;SDS011;23227;48.780;9.210;2023-07-13T14:58:19;2.35;;;0.90;;
37047;SDS011;23227;48.780;9.210;2023-07-13T15:01:22;4.97;;;0.82;;
37047;SDS011;23227;48.780;9.210;2023-07-13T15:04:25;4.32;;;0.95;;
37047;SDS011;23227;48.780;9.210;2023-07-13T15:10:31;2.85;;;0.80;;
37047;SDS011;23227;48.780;9.210;2023-07-13T15:13:36;4.22;;;1.05;;
37047;SDS011;23227;48.780;9.210;2023-07-13T15:16:39;4.30;;;0.90;;
37047;SDS011;23227;48.780;9.210;2023-07-13T15:22:44;2.00;;;0.82;;
37047;SDS011;23227;48.780;9.210;2023-07-13T15:25:48;6.63;;;0.80;;
37047;SDS011;23227;48.780;9.210;2023-07-13T15:28:52;83.22;;;9.10;;
37047;SDS011;23227;48.780;9.210;2023-07-13T15:31:54;42.67;;;5.82;;
37047;SDS011;23227;48.780;9.210;2023-07-13T15:37:59;40.83;;;5.13;;
37047;SDS011;23227;48.780;9.210;2023-07-13T15:41:04;35.67;;;5.88;;
37047;SDS011;23227;48.780;9.210;2023-07-13T15:44:25;24.73;;;5.63;;
37047;SDS011;23227;48.780;9.210;2023-07-13T15:47:29;39.38;;;7.22;;
37047;SDS011;23227;48.780;9.210;2023-07-13T15:53:34;28.88;;;5.28;;
37047;SDS011;23227;48.780;9.210;2023-07-13T15:56:38;23.63;;;5.07;;
37047;SDS011;23227;48.780;9.210;2023-07-13T15:59:43;27.33;;;4.68;;
37047;SDS011;23227;48.780;9.210;2023-07-13T16:02:46;22.60;;;4.93;;
37047;SDS011;23227;48.780;9.210;2023-07-13T16:05:49;27.92;;;5.45;;
37047;SDS011;23227;48.780;9.210;2023-07-13T16:08:53;20.33;;;5.05;;
37047;SDS011;23227;48.780;9.210;2023-07-13T16:11:56;25.17;;;5.43;;
37047;SDS011;23227;48.780;9.210;2023-07-13T16:15:00;18.00;;;4.43;;
37047;SDS011;23227;48.780;9.210;2023-07-13T16:18:06;23.90;;;4.53;;
37047;SDS011;23227;48.780;9.210;2023-07-13T16:21:09;23.15;;;4.82;;
37047;SDS011;23227;48.780;9.210;2023-07-13T16:24:15;22.20;;;4.28;;
37047;SDS011;23227;48.780;9.210;2023-07-13T16:27:21;23.17;;;5.13;;
37047;SDS011;23227;48.780;9.210;2023-07-13T16:30:27;24.85;;;4.30;;
37047;SDS011;23227;48.780;9.210;2023-07-13T16:33:32;19.58;;;4.50;;
37047;SDS011;23227;48.780;9.210;2023-07-13T16:39:38;18.38;;;4.35;;
37047;SDS011;23227;48.780;9.210;2023-07-13T16:42:41;19.25;;;4.10;;
37047;SDS011;23227;48.780;9.210;2023-07-13T16:48:49;18.85;;;4.00;;
37047;SDS011;23227;48.780;9.210;2023-07-13T16:51:52;15.43;;;3.50;;
37047;SDS011;23227;48.780;9.210;2023-07-13T16:54:55;17.50;;;3.90;;
37047;SDS011;23227;48.780;9.210;2023-07-13T17:01:03;14.60;;;3.80;;
37047;SDS011;23227;48.780;9.210;2023-07-13T17:04:08;10.70;;;4.35;;
37047;SDS011;23227;48.780;9.210;2023-07-13T17:07:11;12.73;;;3.95;;
37047;SDS011;23227;48.780;9.210;2023-07-13T17:10:18;21.83;;;5.00;;
37047;SDS011;23227;48.780;9.210;2023-07-13T17:13:24;16.52;;;3.75;;
37047;SDS011;23227;48.780;9.210;2023-07-13T17:16:29;11.48;;;4.00;;
37047;SDS011;23227;48.780;9.210;2023-07-13T17:19:32;14.82;;;4.35;;
37047;SDS011;23227;48.780;9.210;2023-07-13T17:22:35;10.05;;;3.55;;
37047;SDS011;23227;48.780;9.210;2023-07-13T17:25:38;15.13;;;4.15;;
37047;SDS011;23227;48.780;9.210;2023-07-13T17:28:41;14.02;;;3.92;;
37047;SDS011;23227;48.780;9.210;2023-07-13T17:31:46;9.45;;;3.67;;
37047;SDS011;23227;48.780;9.210;2023-07-13T17:34:49;14.63;;;3.13;;
37047;SDS011;23227;48.780;9.210;2023-07-13T17:40:55;13.48;;;3.08;;
37047;SDS011;23227;48.780;9.210;2023-07-13T17:47:02;7.22;;;1.77;;
37047;SDS011;23227;48.780;9.210;2023-07-13T17:50:09;6.00;;;2.13;;
37047;SDS011;23227;48.780;9.210;2023-07-13T17:53:15;7.25;;;2.03;;
37047;SDS011;23227;48.780;9.210;2023-07-13T17:56:18;7.50;;;2.05;;
37047;SDS011;23227;48.780;9.210;2023-07-13T18:02:26;8.32;;;2.00;;
37047;SDS011;23227;48.780;9.210;2023-07-13T18:05:33;4.90;;;1.52;;
37047;SDS011;23227;48.780;9.210;2023-07-13T18:08:37;4.82;;;1.60;;
37047;SDS011;23227;48.780;9.210;2023-07-13T18:11:40;2.97;;;1.48;;
37047;SDS011;23227;48.780;9.210;2023-07-13T18:20:52;5.53;;;1.30;;
37047;SDS011;23227;48.780;9.210;2023-07-13T18:23:54;3.55;;;1.15;;
37047;SDS011;23227;48.780;9.210;2023-07-13T18:29:59;3.33;;;1.50;;
37047;SDS011;23227;48.780;9.210;2023-07-13T18:33:03;3.88;;;1.23;;
37047;SDS011;23227;48.780;9.210;2023-07-13T18:36:06;3.55;;;1.52;;
37047;SDS011;23227;48.780;9.210;2023-07-13T18:39:11;3.13;;;1.20;;
37047;SDS011;23227;48.780;9.210;2023-07-13T18:42:15;2.95;;;1.15;;
37047;SDS011;23227;48.780;9.210;2023-07-13T18:45:20;3.30;;;1.10;;
37047;SDS011;23227;48.780;9.210;2023-07-13T18:51:27;12.35;;;1.73;;
37047;SDS011;23227;48.780;9.210;2023-07-13T18:57:34;5.45;;;1.52;;
37047;SDS011;23227;48.780;9.210;2023-07-13T19:03:41;3.33;;;1.20;;
37047;SDS011;23227;48.780;9.210;2023-07-13T19:06:43;4.03;;;1.27;;
37047;SDS011;23227;48.780;9.210;2023-07-13T19:09:48;3.50;;;1.30;;
37047;SDS011;23227;48.780;9.210;2023-07-13T19:15:56;5.22;;;1.15;;
37047;SDS011;23227;48.780;9.210;2023-07-13T19:19:00;4.82;;;1.05;;
37047;SDS011;23227;48.780;9.210;2023-07-13T19:22:03;6.18;;;0.90;;
37047;SDS011;23227;48.780;9.210;2023-07-13T19:25:11;2.80;;;1.40;;
37047;SDS011;23227;48.780;9.210;2023-07-13T19:28:24;5.45;;;1.52;;
37047;SDS011;23227;48.780;9.210;2023-07-13T19:31:30;2.45;;;1.05;;
37047;SDS011;23227;48.780;9.210;2023-07-13T19:34:37;7.00;;;1.02;;
37047;SDS011;23227;48.780;9.210;2023-07-13T19:37:40;3.75;;;0.95;;
37047;SDS011;23227;48.780;9.210;2023-07-13T19:43:46;5.10;;;1.08;;
37047;SDS011;23227;48.780;9.210;2023-07-13T19:46:49;1.70;;;1.10;;
37047;SDS011;23227;48.780;9.210;2023-07-13T19:49:53;5.43;;;1.10;;
37047;SDS011;23227;48.780;9.210;2023-07-13T19:52:56;2.47;;;1.20;;
37047;SDS011;23227;48.780;9.210;2023-07-13T19:59:04;2.40;;;1.00;;
37047;SDS011;23227;48.780;9.210;2023-07-13T20:02:22;4.53;;;1.23;;
37047;SDS011;23227;48.780;9.210;2023-07-13T20:05:27;2.53;;;1.08;;
37047;SDS011;23227;48.780;9.210;2023-07-13T20:08:30;3.15;;;1.00;;
37047;SDS011;23227;48.780;9.210;2023-07-13T20:14:35;5.25;;;1.48;;
37047;SDS011;23227;48.780;9.210;2023-07-13T20:20:43;4.25;;;1.13;;
37047;SDS011;23227;48.780;9.210;2023-07-13T20:23:49;3.95;;;1.42;;
37047;SDS011;23227;48.780;9.210;2023-07-13T20:26:52;3.05;;;1.48;;
37047;SDS011;23227;48.780;9.210;2023-07-13T20:32:59;7.30;;;1.30;;
37047;SDS011;23227;48.780;9.210;2023-07-13T20:36:04;4.50;;;1.15;;
37047;SDS011;23227;48.780;9.210;2023-07-13T20:39:09;1.52;;;1.05;;
37047;SDS011;23227;48.780;9.210;2023-07-13T20:42:12;4.55;;;1.65;;
37047;SDS011;23227;48.780;9.210;2023-07-13T20:45:15;3.13;;;1.15;;
37047;SDS011;23227;48.780;9.210;2023-07-13T20:48:24;3.05;;;1.15;;
37047;SDS011;23227;48.780;9.210;2023-07-13T20:51:30;1.38;;;1.00;;
37047;SDS011;23227;48.780;9.210;2023-07-13T20:54:33;3.00;;;1.23;;
37047;SDS011;23227;48.780;9.210;2023-07-13T21:00:39;4.65;;;1.40;;
37047;SDS011;23227;48.780;9.210;2023-07-13T21:03:42;4.93;;;1.25;;
37047;SDS011;23227;48.780;9.210;2023-07-13T21:06:47;2.30;;;1.08;;
37047;SDS011;23227;48.780;9.210;2023-07-13T21:09:49;5.68;;;1.48;;
37047;SDS011;23227;48.780;9.210;2023-07-13T21:12:53;4.32;;;1.42;;
37047;SDS011;23227;48.780;9.210;2023-07-13T21:15:56;1.52;;;1.13;;
37047;SDS011;23227;48.780;9.210;2023-07-13T21:18:59;3.60;;;1.80;;
37047;SDS011;23227;48.780;9.210;2023-07-13T21:22:03;2.72;;;1.20;;
37047;SDS011;23227;48.780;9.210;2023-07-13T21:25:08;2.67;;;1.00;;
37047;SDS011;23227;48.780;9.210;2023-07-13T21:28:14;2.42;;;1.55;;
37047;SDS011;23227;48.780;9.210;2023-07-13T21:34:22;2.53;;;1.50;;